Time;durP1;ratioP1;P1;durP2;ratioP2;P2;SDS_P1;SDS_P2;PMS_P1;PMS_P2;Temp;Humidity;BMP_temperature;BMP_pressure;BME280_temperature;BME280_humidity;BME280_pressure;Samples;Min_cycle;Max_cycle;Signal;HPM_P1;HPM_P2
2019/05/06 00:00:43;;;;;;;4.8;4.3;;;;;;;4.66;70.73438;960.7531;;;;
2019/05/06 00:03:08;;;;;;;5.1;4.6;;;;;;;4.64;72.50195;960.8105;;;;
2019/05/06 00:05:33;;;;;;;5.2;4.2;;;;;;;4.69;70.70605;960.8069;;;;
2019/05/06 00:07:58;;;;;;;7.4;4.3;;;;;;;4.59;71.41504;960.7445;;;;
2019/05/06 00:10:48;;;;;;;5;4.1;;;;;;;4.69;69.2627;960.747;;;;
2019/05/06 00:13:13;;;;;;;5.4;4.3;;;;;;;4.73;68.70117;960.749;;;;
2019/05/06 00:15:39;;;;;;;6.2;4.3;;;;;;;4.64;69.20898;960.7119;;;;
2019/05/06 00:18:04;;;;;;;5.7;4.7;;;;;;;4.4;72.6543;960.7177;;;;
2019/05/06 00:20:29;;;;;;;6.6;4.7;;;;;;;4.43;73.54297;960.7803;;;;
2019/05/06 00:23:00;;;;;;;4.9;4.2;;;;;;;4.43;72.41992;960.8318;;;;
2019/05/06 00:25:29;;;;;;;5.6;4.7;;;;;;;4.4;73.59375;960.791;;;;
2019/05/06 00:29:37;;;;;;;5.6;4.4;;;;;;;4.4;72.51758;960.8209;;;;
2019/05/06 00:30:15;;;;;;;6.4;4.8;;;;;;;4.46;72.69727;960.8347;;;;
2019/05/06 00:32:40;;;;;;;5.4;4;;;;;;;4.58;69.99414;960.7967;;;;
2019/05/06 00:35:05;;;;;;;5.2;4.1;;;;;;;4.53;70.69922;960.7787;;;;
2019/05/06 00:37:30;;;;;;;4.6;3.9;;;;;;;4.54;69.93066;960.8164;;;;
2019/05/06 00:40:10;;;;;;;4.8;4.3;;;;;;;4.48;71.31543;960.7732;;;;
2019/05/06 00:42:31;;;;;;;5.8;4.1;;;;;;;4.51;70.81152;960.7883;;;;
2019/05/06 00:44:46;;;;;;;5.3;3.9;;;;;;;4.51;70.76465;960.7972;;;;
2019/05/06 00:47:11;;;;;;;5.3;4.1;;;;;;;4.53;70.87109;960.774;;;;
2019/05/06 00:49:36;;;;;;;5.4;3.8;;;;;;;4.47;70.65625;960.7778;;;;
2019/05/06 00:52:02;;;;;;;5.1;3.8;;;;;;;4.51;70.26465;960.823;;;;
2019/05/06 00:54:27;;;;;;;6.7;3.9;;;;;;;4.49;70.60254;960.7595;;;;
2019/05/06 00:56:52;;;;;;;5.4;3.9;;;;;;;4.46;72.43652;960.7573;;;;
2019/05/06 00:59:19;;;;;;;4.9;3.9;;;;;;;4.48;70.77246;960.8372;;;;
2019/05/06 01:01:44;;;;;;;4.1;3.4;;;;;;;4.54;69.27246;960.8381;;;;
2019/05/06 01:04:11;;;;;;;4.7;3.7;;;;;;;4.44;70.75391;960.8871;;;;
2019/05/06 01:06:36;;;;;;;4.6;3.8;;;;;;;4.31;73.29688;960.8734;;;;
2019/05/06 01:09:02;;;;;;;6.2;4.1;;;;;;;4.28;72.91602;960.9188;;;;
2019/05/06 01:11:28;;;;;;;4.4;3.6;;;;;;;4.32;73.63672;960.9462;;;;
2019/05/06 01:14:16;;;;;;;4.4;3.7;;;;;;;4.41;70.6582;960.9236;;;;
2019/05/06 01:16:20;;;;;;;4.7;3.6;;;;;;;4.41;70.5;960.9794;;;;
2019/05/06 01:18:44;;;;;;;4.3;3.5;;;;;;;4.34;70.6582;960.9836;;;;
2019/05/06 01:21:09;;;;;;;4.5;3.5;;;;;;;4.32;71.52734;960.9333;;;;
2019/05/06 01:23:36;;;;;;;5.1;3.7;;;;;;;4.19;71.71191;961.0011;;;;
2019/05/06 01:26:01;;;;;;;5.2;3.7;;;;;;;4.1;72.38672;960.9335;;;;
2019/05/06 01:28:26;;;;;;;4.6;3.8;;;;;;;4.06;74.13574;960.9875;;;;
2019/05/06 01:30:51;;;;;;;4.9;3.7;;;;;;;4.12;72.69531;960.9451;;;;
2019/05/06 01:33:16;;;;;;;5.1;3.9;;;;;;;4.16;73.66602;961.0463;;;;
2019/05/06 01:35:42;;;;;;;4.1;3.5;;;;;;;4.12;72.59473;961.0009;;;;
2019/05/06 01:38:23;;;;;;;4;3.6;;;;;;;4.12;72.94531;961.0572;;;;
2019/05/06 01:40:36;;;;;;;4.5;3.4;;;;;;;4.11;72.69434;961.002;;;;
2019/05/06 01:43:14;;;;;;;4.6;3.4;;;;;;;4.12;69.99902;961.0953;;;;
2019/05/06 01:45:22;;;;;;;4.4;3.6;;;;;;;3.95;74.07227;961.0544;;;;
2019/05/06 01:47:48;;;;;;;4.9;3.2;;;;;;;4.08;70.7627;961.0765;;;;
2019/05/06 01:50:13;;;;;;;4.8;3.5;;;;;;;4.04;71.00391;961.1178;;;;
2019/05/06 01:52:38;;;;;;;5.2;3.5;;;;;;;4.03;71.39941;961.0709;;;;
2019/05/06 01:55:03;;;;;;;5.2;3.4;;;;;;;4.07;70.2168;961.1415;;;;
2019/05/06 01:57:28;;;;;;;4.1;3.2;;;;;;;4.06;71.16699;961.1206;;;;
2019/05/06 01:59:55;;;;;;;3.8;3.3;;;;;;;3.93;73.36621;961.1242;;;;
2019/05/06 02:02:20;;;;;;;3.4;3.1;;;;;;;3.83;74.15332;961.1085;;;;
2019/05/06 02:04:46;;;;;;;4.5;3.3;;;;;;;3.76;73.13281;961.1428;;;;
2019/05/06 02:07:11;;;;;;;5.5;3.7;;;;;;;3.78;73.43164;961.1972;;;;
2019/05/06 02:09:36;;;;;;;4;3.2;;;;;;;3.88;71.27344;961.2042;;;;
2019/05/06 02:12:01;;;;;;;4.6;3.2;;;;;;;3.91;72.53613;961.1854;;;;
2019/05/06 02:14:26;;;;;;;3.5;3.2;;;;;;;3.99;69.625;961.228;;;;
2019/05/06 02:16:51;;;;;;;5.3;3.2;;;;;;;3.94;70.69336;961.291;;;;
2019/05/06 02:19:16;;;;;;;5.1;3.4;;;;;;;3.95;69.92383;961.235;;;;
2019/05/06 02:21:54;;;;;;;4.8;3.4;;;;;;;3.88;70.63867;961.2429;;;;
2019/05/06 02:24:08;;;;;;;4.3;3.2;;;;;;;3.77;71.57129;961.3269;;;;
2019/05/06 02:26:31;;;;;;;4.5;3.3;;;;;;;3.85;70.88379;961.3262;;;;
2019/05/06 02:28:58;;;;;;;4.3;3.3;;;;;;;3.77;71.81055;961.3911;;;;
2019/05/06 02:33:52;;;;;;;6.2;3.6;;;;;;;3.72;71.43945;961.3167;;;;
2019/05/06 02:38:37;;;;;;;4.5;3.4;;;;;;;3.68;73.77637;961.3665;;;;
2019/05/06 02:41:02;;;;;;;3.9;3.4;;;;;;;3.71;72.75;961.4119;;;;
2019/05/06 02:43:27;;;;;;;4.6;3.3;;;;;;;3.76;71.03711;961.3872;;;;
2019/05/06 02:45:52;;;;;;;4.6;3.2;;;;;;;3.75;69.66699;961.4481;;;;
2019/05/06 02:55:09;;;;;;;4;2.9;;;;;;;3.79;69.86328;961.4417;;;;
2019/05/06 02:57:34;;;;;;;5.7;3.2;;;;;;;3.83;68.70508;961.4608;;;;
2019/05/06 02:59:59;;;;;;;4.8;3.3;;;;;;;3.82;69.7998;961.4574;;;;
2019/05/06 03:02:24;;;;;;;3.5;3;;;;;;;3.88;68.5752;961.5225;;;;
2019/05/06 03:04:51;;;;;;;3.9;2.8;;;;;;;3.76;69.36035;961.495;;;;
2019/05/06 03:07:16;;;;;;;4.7;2.9;;;;;;;3.81;68.58789;961.5394;;;;
2019/05/06 03:09:42;;;;;;;4.4;3.5;;;;;;;3.59;71.12207;961.4617;;;;
2019/05/06 03:12:08;;;;;;;4.5;3.3;;;;;;;3.66;71.34766;961.4966;;;;
2019/05/06 03:14:34;;;;;;;3.8;3;;;;;;;3.69;70.78711;961.5418;;;;
2019/05/06 03:16:59;;;;;;;3.8;2.9;;;;;;;3.71;71.86621;961.5452;;;;
2019/05/06 03:19:25;;;;;;;4.2;3;;;;;;;3.76;70.4707;961.5594;;;;
2019/05/06 03:22:02;;;;;;;5.1;3.3;;;;;;;3.62;71.74902;961.5718;;;;
2019/05/06 03:26:55;;;;;;;4.6;3.1;;;;;;;3.61;73.16309;961.6152;;;;
2019/05/06 03:29:20;;;;;;;4.8;3.5;;;;;;;3.42;71.03711;961.6131;;;;
2019/05/06 03:31:48;;;;;;;4.6;3.4;;;;;;;3.36;72.81641;961.6078;;;;
2019/05/06 03:34:13;;;;;;;4.8;3.3;;;;;;;3.51;74.68652;961.6337;;;;
2019/05/06 03:36:38;;;;;;;5.4;3.5;;;;;;;3.47;73.74023;961.6273;;;;
2019/05/06 03:39:04;;;;;;;5.4;3.4;;;;;;;3.49;74.04785;961.6953;;;;
2019/05/06 03:41:28;;;;;;;4.5;3.1;;;;;;;3.64;72.83984;961.6954;;;;
2019/05/06 03:43:55;;;;;;;4.1;3.3;;;;;;;3.67;72.46094;961.6848;;;;
2019/05/06 03:46:29;;;;;;;5.2;3.2;;;;;;;3.58;72.26465;961.7674;;;;
2019/05/06 03:48:46;;;;;;;4.6;3.1;;;;;;;3.66;70.5791;961.6983;;;;
2019/05/06 03:51:11;;;;;;;3.7;3.1;;;;;;;3.72;72.06055;961.7639;;;;
2019/05/06 03:53:37;;;;;;;4.9;3.1;;;;;;;3.6;72.05371;961.7017;;;;
2019/05/06 03:56:02;;;;;;;5.4;3.1;;;;;;;3.65;71.13281;961.7162;;;;
2019/05/06 03:58:28;;;;;;;5.4;3.2;;;;;;;3.69;71.62402;961.7615;;;;
2019/05/06 04:02:39;;;;;;;6.1;3.2;;;;;;;3.66;70.09082;961.7029;;;;
2019/05/06 04:05:04;;;;;;;4.3;3.1;;;;;;;3.57;73.14551;961.772;;;;
2019/05/06 04:07:29;;;;;;;4.5;3.1;;;;;;;3.6;70.72754;961.7193;;;;
2019/05/06 04:09:54;;;;;;;5.7;2.9;;;;;;;3.55;70.12012;961.8248;;;;
2019/05/06 04:12:21;;;;;;;4;2.9;;;;;;;3.63;69.12402;961.8119;;;;
2019/05/06 04:14:46;;;;;;;5.6;3.3;;;;;;;3.5;70.12207;961.8405;;;;
2019/05/06 04:17:36;;;;;;;4.9;3;;;;;;;3.54;69.82422;961.8295;;;;
2019/05/06 04:19:44;;;;;;;4.9;3.4;;;;;;;3.47;69.59668;961.8206;;;;
2019/05/06 04:22:43;;;;;;;4.3;3.3;;;;;;;3.42;71.33105;961.8152;;;;
2019/05/06 04:24:48;;;;;;;5.3;3.2;;;;;;;3.44;69.9082;961.8869;;;;
2019/05/06 04:27:01;;;;;;;4.8;3.3;;;;;;;3.48;69.6875;961.9236;;;;
2019/05/06 04:29:19;;;;;;;5;3.3;;;;;;;3.48;70.50391;961.9231;;;;
2019/05/06 04:31:44;;;;;;;4.6;3.5;;;;;;;3.48;72.22461;961.9617;;;;
2019/05/06 04:34:09;;;;;;;5.7;3.6;;;;;;;3.42;72.24805;962.0209;;;;
2019/05/06 04:36:34;;;;;;;5.6;3.7;;;;;;;3.47;71.2041;961.9581;;;;
2019/05/06 04:38:59;;;;;;;8.2;5.5;;;;;;;3.44;71.13086;962.0673;;;;
2019/05/06 04:41:25;;;;;;;11.9;9.7;;;;;;;3.46;70.20508;962.0836;;;;
2019/05/06 04:43:50;;;;;;;15.3;10.7;;;;;;;3.51;69.06055;962.0761;;;;
2019/05/06 04:46:16;;;;;;;8.2;7;;;;;;;3.44;72.17383;962.0759;;;;
2019/05/06 04:48:41;;;;;;;7.9;4.6;;;;;;;3.32;73.39746;962.108;;;;
2019/05/06 04:51:06;;;;;;;5;3.7;;;;;;;3.39;71.27051;962.1127;;;;
2019/05/06 04:53:32;;;;;;;5.5;4.9;;;;;;;3.31;72.9541;962.1858;;;;
2019/05/06 04:55:57;;;;;;;73.7;66.4;;;;;;;3.43;70.9707;962.2054;;;;
2019/05/06 04:58:22;;;;;;;31.6;28.9;;;;;;;3.49;69.38477;962.1545;;;;
2019/05/06 05:00:47;;;;;;;16.1;14.8;;;;;;;3.47;72.0293;962.2032;;;;
2019/05/06 05:03:12;;;;;;;8.9;7.2;;;;;;;3.45;71.65234;962.1785;;;;
2019/05/06 05:05:37;;;;;;;5.6;3.9;;;;;;;3.42;72.2373;962.2017;;;;
2019/05/06 05:08:02;;;;;;;5.4;3.8;;;;;;;3.35;72.92676;962.2053;;;;
2019/05/06 05:10:34;;;;;;;7.4;3.6;;;;;;;3.49;70.98145;962.2536;;;;
2019/05/06 05:13:01;;;;;;;5.6;3.7;;;;;;;3.53;71.08887;962.2385;;;;
2019/05/06 05:15:40;;;;;;;5.4;3.5;;;;;;;3.52;70.08008;962.2349;;;;
2019/05/06 05:17:49;;;;;;;4.6;3.4;;;;;;;3.57;70.75684;962.3093;;;;
2019/05/06 05:20:09;;;;;;;4.8;3.3;;;;;;;3.62;69.72363;962.3925;;;;
2019/05/06 05:22:37;;;;;;;7.4;3.8;;;;;;;3.61;70.91016;962.3546;;;;
2019/05/06 05:25:02;;;;;;;5.3;3.7;;;;;;;3.62;71.52441;962.3667;;;;
2019/05/06 05:27:28;;;;;;;7.4;3.7;;;;;;;3.64;70.4502;962.3786;;;;
2019/05/06 05:29:53;;;;;;;6.5;4.2;;;;;;;3.64;70.39453;962.4127;;;;
2019/05/06 05:32:20;;;;;;;7.9;4;;;;;;;3.53;71.14746;962.4316;;;;
2019/05/06 05:34:45;;;;;;;5.9;3.6;;;;;;;3.66;71.34961;962.4331;;;;
2019/05/06 05:37:10;;;;;;;7.3;3.9;;;;;;;3.63;71.49219;962.4519;;;;
2019/05/06 05:39:36;;;;;;;5.9;3.7;;;;;;;3.53;70.61328;962.462;;;;
2019/05/06 05:42:13;;;;;;;7.6;4;;;;;;;3.46;72.52637;962.5002;;;;
2019/05/06 05:44:33;;;;;;;7;4.1;;;;;;;3.52;72.9668;962.5225;;;;
2019/05/06 05:46:52;;;;;;;5.4;3.7;;;;;;;3.69;71.8623;962.5351;;;;
2019/05/06 05:51:43;;;;;;;5;3.7;;;;;;;3.73;70.77246;962.5024;;;;
2019/05/06 05:54:08;;;;;;;5.4;3.7;;;;;;;3.78;67.92676;962.5125;;;;
2019/05/06 05:56:33;;;;;;;4.7;3.4;;;;;;;3.88;67.38574;962.5413;;;;
2019/05/06 05:58:58;;;;;;;4.8;3.6;;;;;;;3.86;67.26953;962.5728;;;;
2019/05/06 06:01:24;;;;;;;5.6;3.9;;;;;;;3.8;70.00098;962.6105;;;;
2019/05/06 06:03:49;;;;;;;6.6;3.7;;;;;;;3.74;68.08887;962.5662;;;;
2019/05/06 06:06:14;;;;;;;5.5;3.6;;;;;;;3.79;67.36035;962.6063;;;;
2019/05/06 06:08:39;;;;;;;5.1;3.4;;;;;;;3.77;67.39063;962.6163;;;;
2019/05/06 06:11:08;;;;;;;5.2;3.6;;;;;;;3.77;67.93457;962.6506;;;;
2019/05/06 06:13:29;;;;;;;6;3.5;;;;;;;3.8;66.85254;962.6448;;;;
2019/05/06 06:18:31;;;;;;;5.9;3.7;;;;;;;3.71;68.19629;962.6799;;;;
2019/05/06 06:20:57;;;;;;;5.5;3.5;;;;;;;3.67;68.06641;962.6389;;;;
2019/05/06 06:23:25;;;;;;;5.4;3.6;;;;;;;3.73;68.36914;962.7046;;;;
2019/05/06 06:25:36;;;;;;;6.4;3.6;;;;;;;3.78;68.17383;962.6202;;;;
2019/05/06 06:28:01;;;;;;;5.5;3.6;;;;;;;3.83;67.78516;962.6603;;;;
2019/05/06 06:30:36;;;;;;;5.4;3.5;;;;;;;3.93;67.8916;962.6292;;;;
2019/05/06 06:32:54;;;;;;;5.7;4.1;;;;;;;3.78;68.62891;962.6713;;;;
2019/05/06 06:35:27;;;;;;;4.8;3.6;;;;;;;3.85;71.09766;962.6891;;;;
2019/05/06 06:37:55;;;;;;;6.4;4;;;;;;;4;69.99902;962.6809;;;;
2019/05/06 06:40:10;;;;;;;5.1;3.6;;;;;;;4.04;68.53418;962.743;;;;
2019/05/06 06:42:35;;;;;;;5.3;4;;;;;;;4.12;70.84961;962.7427;;;;
2019/05/06 06:45:00;;;;;;;7.5;3.9;;;;;;;4.32;69.22461;962.7531;;;;
2019/05/06 06:47:25;;;;;;;7.8;4.3;;;;;;;4.46;70.6543;962.8269;;;;
2019/05/06 06:49:51;;;;;;;6.8;4.6;;;;;;;4.61;67.83105;962.805;;;;
2019/05/06 06:52:16;;;;;;;5.9;4;;;;;;;4.66;67.91699;962.7634;;;;
2019/05/06 06:54:41;;;;;;;6.3;3.8;;;;;;;4.81;68.24805;962.7332;;;;
2019/05/06 06:57:26;;;;;;;4.7;3.8;;;;;;;5.02;66.14551;962.6903;;;;
2019/05/06 06:59:35;;;;;;;6.7;4;;;;;;;5.06;66.2207;962.6794;;;;
2019/05/06 07:02:04;;;;;;;6.3;3.8;;;;;;;5.04;66.94531;962.6848;;;;
2019/05/06 07:04:28;;;;;;;5.2;3.6;;;;;;;5.12;65.26465;962.6927;;;;
2019/05/06 07:06:49;;;;;;;5.7;3.3;;;;;;;5.21;66.08496;962.666;;;;
2019/05/06 07:09:12;;;;;;;6.2;3.4;;;;;;;5.35;65.28711;962.6573;;;;
2019/05/06 07:11:37;;;;;;;5.5;3.6;;;;;;;5.44;65.1875;962.7121;;;;
2019/05/06 07:14:03;;;;;;;7.5;3.5;;;;;;;5.46;63.3584;962.6508;;;;
2019/05/06 07:16:28;;;;;;;5.4;3.5;;;;;;;5.48;64.03418;962.6836;;;;
2019/05/06 07:18:53;;;;;;;7.7;4.2;;;;;;;5.63;63.04297;962.5499;;;;
2019/05/06 07:21:33;;;;;;;5.8;3.3;;;;;;;5.59;61.1377;962.5433;;;;
2019/05/06 07:23:43;;;;;;;6.7;3.4;;;;;;;5.59;61.93359;962.5779;;;;
2019/05/06 07:26:11;;;;;;;6.3;3.3;;;;;;;5.69;65.24902;962.6359;;;;
2019/05/06 07:28:34;;;;;;;5.4;3.2;;;;;;;5.86;64.03418;962.5737;;;;
2019/05/06 07:31:00;;;;;;;5.3;3;;;;;;;5.87;60.88281;962.5818;;;;
2019/05/06 07:33:25;;;;;;;5.1;3.1;;;;;;;5.9;63.01563;962.6188;;;;
2019/05/06 07:35:52;;;;;;;6.3;3.4;;;;;;;6.03;64.25391;962.606;;;;
2019/05/06 07:38:17;;;;;;;4.6;2.9;;;;;;;6.11;60.83594;962.6011;;;;
2019/05/06 07:40:44;;;;;;;5.3;2.7;;;;;;;6.14;60.39648;962.6033;;;;
2019/05/06 07:45:41;;;;;;;4.4;3;;;;;;;6.33;58.21094;962.6259;;;;
2019/05/06 07:48:10;;;;;;;6;3;;;;;;;6.28;60.0625;962.6158;;;;
2019/05/06 07:50:23;;;;;;;4.2;2.9;;;;;;;6.36;59.93848;962.5975;;;;
2019/05/06 07:53:06;;;;;;;4.2;2.5;;;;;;;6.33;55.92188;962.5994;;;;
2019/05/06 07:55:13;;;;;;;3.4;2.5;;;;;;;6.47;57.37695;962.5428;;;;
2019/05/06 07:57:40;;;;;;;5;2.5;;;;;;;6.46;58.31055;962.617;;;;
2019/05/06 08:00:05;;;;;;;5.4;2.5;;;;;;;6.6;56.46973;962.6642;;;;
2019/05/06 08:02:31;;;;;;;3.9;2.5;;;;;;;6.55;58.24121;962.6545;;;;
2019/05/06 08:04:56;;;;;;;4.5;2.4;;;;;;;6.48;56.97754;962.6029;;;;
2019/05/06 08:07:21;;;;;;;5;2.6;;;;;;;6.59;56.13965;962.6601;;;;
2019/05/06 08:09:46;;;;;;;4.3;2.5;;;;;;;6.75;53.44434;962.6409;;;;
2019/05/06 08:12:11;;;;;;;5;2.7;;;;;;;6.76;53.28418;962.5756;;;;
2019/05/06 08:14:42;;;;;;;5.2;2.8;;;;;;;6.88;53.56348;962.6323;;;;
2019/05/06 08:17:02;;;;;;;5.2;2.9;;;;;;;6.91;52.8252;962.6259;;;;
2019/05/06 08:19:27;;;;;;;5.6;2.5;;;;;;;6.99;52.38965;962.5942;;;;
2019/05/06 08:21:54;;;;;;;5.5;3.1;;;;;;;6.95;52.45313;962.6147;;;;
2019/05/06 08:24:17;;;;;;;5.9;2.4;;;;;;;6.97;50.74414;962.6043;;;;
2019/05/06 08:26:43;;;;;;;3.9;2.2;;;;;;;6.82;54.46777;962.5544;;;;
2019/05/06 08:29:11;;;;;;;13.4;7.7;;;;;;;6.85;53.81152;962.5391;;;;
2019/05/06 08:31:36;;;;;;;5;2.9;;;;;;;7;52.07031;962.6114;;;;
2019/05/06 08:34:03;;;;;;;4.2;2.4;;;;;;;7.07;51.33691;962.5673;;;;
2019/05/06 08:38:58;;;;;;;4.8;2.1;;;;;;;7.39;50.35742;962.5455;;;;
2019/05/06 08:41:19;;;;;;;3.8;2;;;;;;;7.54;46.93652;962.535;;;;
2019/05/06 08:43:46;;;;;;;4.5;2.7;;;;;;;7.62;46.97852;962.4905;;;;
2019/05/06 08:46:11;;;;;;;8.4;4.3;;;;;;;7.8;46.0957;962.5422;;;;
2019/05/06 08:48:36;;;;;;;5.7;2.8;;;;;;;7.99;45.20117;962.5287;;;;
2019/05/06 08:51:14;;;;;;;3.8;2;;;;;;;7.95;45.97559;962.5271;;;;
2019/05/06 08:53:36;;;;;;;3.9;2.1;;;;;;;7.89;45.35059;962.5745;;;;
2019/05/06 08:55:51;;;;;;;3.5;1.9;;;;;;;7.76;48.35645;962.4973;;;;
2019/05/06 08:58:17;;;;;;;3.7;1.9;;;;;;;7.79;46.01465;962.4697;;;;
2019/05/06 09:00:56;;;;;;;4;2;;;;;;;7.82;47.36719;962.4935;;;;
2019/05/06 09:03:07;;;;;;;7.8;2.3;;;;;;;7.96;45.73535;962.4659;;;;
2019/05/06 09:05:32;;;;;;;3.4;1.8;;;;;;;8.02;44.83789;962.622;;;;
2019/05/06 09:07:57;;;;;;;3.3;1.7;;;;;;;7.92;42.12891;962.5464;;;;
2019/05/06 09:10:22;;;;;;;3.5;1.8;;;;;;;7.98;43.68945;962.5338;;;;
2019/05/06 09:12:47;;;;;;;3.6;1.7;;;;;;;8.15;45.35547;962.4478;;;;
2019/05/06 09:15:12;;;;;;;3.3;1.6;;;;;;;8.3;39.55469;962.4761;;;;
2019/05/06 09:17:37;;;;;;;2.9;1.8;;;;;;;8.48;40.38379;962.4807;;;;
2019/05/06 09:20:03;;;;;;;3.5;1.7;;;;;;;8.39;37.21582;962.4608;;;;
2019/05/06 09:22:28;;;;;;;2.9;1.7;;;;;;;8.36;38.5752;962.5017;;;;
2019/05/06 09:24:53;;;;;;;2.5;1.5;;;;;;;8.42;39.79492;962.5193;;;;
2019/05/06 09:29:52;;;;;;;4.2;1.8;;;;;;;8.82;41.08203;962.4545;;;;
2019/05/06 09:32:15;;;;;;;3;1.9;;;;;;;9.09;39.41016;962.4991;;;;
2019/05/06 09:34:40;;;;;;;3.3;1.9;;;;;;;9.31;37.75488;962.3911;;;;
2019/05/06 09:37:12;;;;;;;2.7;1.8;;;;;;;9.46;38.36523;962.401;;;;
2019/05/06 09:39:24;;;;;;;3.8;1.9;;;;;;;9.48;37.83789;962.4777;;;;
2019/05/06 09:41:49;;;;;;;3.4;1.9;;;;;;;9.39;39.04688;962.4456;;;;
2019/05/06 09:44:14;;;;;;;3.2;1.9;;;;;;;9.44;38.70703;962.4548;;;;
2019/05/06 09:46:40;;;;;;;4.1;1.8;;;;;;;9.51;39.67773;962.5051;;;;
2019/05/06 09:49:09;;;;;;;3.4;1.8;;;;;;;9.57;38.72949;962.4013;;;;
2019/05/06 09:51:30;;;;;;;3;1.7;;;;;;;9.3;41.63281;962.4264;;;;
2019/05/06 09:54:09;;;;;;;4;2.2;;;;;;;9.22;41.88867;962.4805;;;;
2019/05/06 09:56:25;;;;;;;3.7;2;;;;;;;9.13;42.07422;962.4656;;;;
2019/05/06 09:58:45;;;;;;;5;2.3;;;;;;;8.96;42.67676;962.4442;;;;
2019/05/06 10:01:11;;;;;;;4.2;2.1;;;;;;;9.07;43.30762;962.4792;;;;
2019/05/06 10:03:36;;;;;;;3.6;1.9;;;;;;;9.29;39.38184;962.4799;;;;
2019/05/06 10:06:01;;;;;;;4.5;2.2;;;;;;;9.37;40.8252;962.4685;;;;
2019/05/06 10:08:26;;;;;;;3.4;2;;;;;;;9.72;42.13184;962.4282;;;;
2019/05/06 10:10:51;;;;;;;4;2.1;;;;;;;10.03;41.04883;962.3772;;;;
2019/05/06 10:13:17;;;;;;;2.9;2;;;;;;;10.31;39.09473;962.425;;;;
2019/05/06 10:15:42;;;;;;;4.6;2.4;;;;;;;10.3;40.63574;962.4216;;;;
2019/05/06 10:18:08;;;;;;;3.9;2.3;;;;;;;10.24;40.44629;962.4695;;;;
2019/05/06 10:20:32;;;;;;;3.5;2.2;;;;;;;10.11;41.23828;962.532;;;;
2019/05/06 10:22:57;;;;;;;3;1.9;;;;;;;9.91;39.17383;962.5222;;;;
2019/05/06 10:25:23;;;;;;;3;1.9;;;;;;;9.56;39.88867;962.6103;;;;
2019/05/06 10:27:50;;;;;;;4.2;2.1;;;;;;;9.42;39.37012;962.5648;;;;
2019/05/06 10:30:13;;;;;;;3.4;2.1;;;;;;;9.1;40.99316;962.52;;;;
2019/05/06 10:32:44;;;;;;;3.9;2.2;;;;;;;8.94;40.81738;962.5629;;;;
2019/05/06 10:35:03;;;;;;;3.4;2;;;;;;;8.86;41.50977;962.5641;;;;
2019/05/06 10:37:29;;;;;;;3.6;1.8;;;;;;;8.83;42.27441;962.6315;;;;
2019/05/06 10:39:54;;;;;;;4.3;2.1;;;;;;;8.88;39.84961;962.6319;;;;
2019/05/06 10:42:19;;;;;;;4.3;2.1;;;;;;;8.8;41.06836;962.6468;;;;
2019/05/06 10:45:05;;;;;;;4.9;2.1;;;;;;;8.77;40.96289;962.6272;;;;
2019/05/06 10:47:30;;;;;;;3.1;2.1;;;;;;;8.79;42.38477;962.617;;;;
2019/05/06 10:49:55;;;;;;;3.6;1.9;;;;;;;8.93;42.97266;962.5848;;;;
2019/05/06 10:52:23;;;;;;;4.6;2.3;;;;;;;8.95;42.01074;962.644;;;;
2019/05/06 10:54:45;;;;;;;5.4;2;;;;;;;8.98;42.67969;962.6506;;;;
2019/05/06 10:57:16;;;;;;;3.5;1.8;;;;;;;8.98;42.73633;962.6033;;;;
2019/05/06 10:59:36;;;;;;;4;2.2;;;;;;;9.1;41.98047;962.5981;;;;
2019/05/06 11:02:12;;;;;;;3.1;1.9;;;;;;;9.16;42.99512;962.6591;;;;
2019/05/06 11:04:26;;;;;;;4.6;2;;;;;;;9.35;42.01563;962.6655;;;;
2019/05/06 11:06:51;;;;;;;3.8;1.9;;;;;;;9.38;42.40918;962.6459;;;;
2019/05/06 11:09:16;;;;;;;4;2.2;;;;;;;9.38;40.27441;962.6459;;;;
2019/05/06 11:11:42;;;;;;;4.3;2;;;;;;;9.48;39.7334;962.6856;;;;
2019/05/06 11:14:07;;;;;;;3.5;2;;;;;;;9.4;37.64746;962.6579;;;;
2019/05/06 11:16:32;;;;;;;3.7;1.8;;;;;;;9.43;37.44434;962.6287;;;;
2019/05/06 11:18:57;;;;;;;3.7;1.7;;;;;;;9.51;38.17285;962.6404;;;;
2019/05/06 11:21:22;;;;;;;3.3;1.8;;;;;;;9.51;37.19824;962.5575;;;;
2019/05/06 11:23:47;;;;;;;3.3;2;;;;;;;9.31;39.56738;962.6041;;;;
2019/05/06 11:26:13;;;;;;;4.1;1.8;;;;;;;9.51;37.49707;962.562;;;;
2019/05/06 11:28:44;;;;;;;3.1;2;;;;;;;9.37;40.08984;962.5644;;;;
2019/05/06 11:38:09;;;;;;;3.6;2;;;;;;;9.41;36.05371;962.5524;;;;
2019/05/06 11:40:17;;;;;;;3.7;1.7;;;;;;;9.44;36.79004;962.498;;;;
2019/05/06 11:42:42;;;;;;;3.5;1.7;;;;;;;9.36;38.18359;962.5041;;;;
2019/05/06 11:45:08;;;;;;;3.4;1.9;;;;;;;9.39;38.19727;962.5411;;;;
2019/05/06 11:47:33;;;;;;;2.4;1.5;;;;;;;9.46;38.12305;962.575;;;;
2019/05/06 11:49:58;;;;;;;3.4;1.7;;;;;;;9.5;35.13086;962.6583;;;;
2019/05/06 11:52:23;;;;;;;3.1;1.7;;;;;;;9.51;37.54297;962.6141;;;;
2019/05/06 11:54:48;;;;;;;2.6;1.6;;;;;;;9.79;38.25586;962.6094;;;;
2019/05/06 11:57:13;;;;;;;5;2;;;;;;;9.92;35.35938;962.5948;;;;
2019/05/06 11:59:40;;;;;;;3.2;2;;;;;;;10.04;35.86426;962.5328;;;;
2019/05/06 12:02:06;;;;;;;3.7;2;;;;;;;10.6;36.87793;962.5397;;;;
2019/05/06 12:04:31;;;;;;;3.5;2.2;;;;;;;11.02;36.58008;962.6219;;;;
2019/05/06 12:06:56;;;;;;;4.1;2;;;;;;;11.26;34.84766;962.5798;;;;
2019/05/06 12:09:21;;;;;;;3.1;1.9;;;;;;;11.06;32.52637;962.5712;;;;
2019/05/06 12:11:46;;;;;;;2.7;1.9;;;;;;;11.09;35.81348;962.5508;;;;
2019/05/06 12:14:11;;;;;;;2.7;2;;;;;;;11.09;36.30957;962.5941;;;;
2019/05/06 12:16:37;;;;;;;3.2;1.8;;;;;;;10.8;37.58496;962.5669;;;;
2019/05/06 12:19:02;;;;;;;2.9;1.7;;;;;;;10.76;35.01367;962.5701;;;;
2019/05/06 12:21:27;;;;;;;3.1;2.1;;;;;;;10.7;36.40332;962.6879;;;;
2019/05/06 12:23:52;;;;;;;3.4;2.1;;;;;;;10.62;38.00781;962.7163;;;;
2019/05/06 12:26:17;;;;;;;3.1;1.8;;;;;;;10.75;37.70801;962.6883;;;;
2019/05/06 12:28:42;;;;;;;3.1;1.9;;;;;;;10.7;38.18652;962.6838;;;;
2019/05/06 12:31:07;;;;;;;3.8;2.2;;;;;;;10.36;37.67383;962.6724;;;;
2019/05/06 12:33:36;;;;;;;3.7;2.1;;;;;;;10.16;39.02539;962.7184;;;;
2019/05/06 12:35:59;;;;;;;3.6;2;;;;;;;10.14;38.4248;962.7291;;;;
2019/05/06 12:38:26;;;;;;;3.6;2.1;;;;;;;10.03;39.77148;962.7598;;;;
2019/05/06 12:40:48;;;;;;;5.6;2.2;;;;;;;10;38.45898;962.8055;;;;
2019/05/06 12:45:41;;;;;;;4.2;2.1;;;;;;;10.04;38.34766;962.9066;;;;
2019/05/06 12:48:07;;;;;;;4.6;2.4;;;;;;;9.66;39.23242;962.8538;;;;
2019/05/06 12:50:29;;;;;;;4.7;2.3;;;;;;;9.57;40.39551;962.8741;;;;
2019/05/06 12:52:54;;;;;;;4.3;2.3;;;;;;;9.58;40.10938;962.8339;;;;
2019/05/06 12:55:19;;;;;;;4.3;2.6;;;;;;;9.7;40.9248;962.8681;;;;
2019/05/06 12:57:44;;;;;;;3.8;2.1;;;;;;;9.86;38.13574;962.83;;;;
2019/05/06 13:00:10;;;;;;;4.1;2.3;;;;;;;9.65;40.44824;962.777;;;;
2019/05/06 13:02:35;;;;;;;3.6;2.2;;;;;;;9.77;40.13965;962.8276;;;;
2019/05/06 13:05:00;;;;;;;4.3;2.4;;;;;;;9.65;40.91895;962.8552;;;;
2019/05/06 13:07:32;;;;;;;5.2;2.5;;;;;;;9.69;42.31348;962.8908;;;;
2019/05/06 13:09:51;;;;;;;5.6;3;;;;;;;9.79;44.52734;962.8616;;;;
2019/05/06 13:12:19;;;;;;;6.3;3.4;;;;;;;9.7;47.44824;962.8552;;;;
2019/05/06 13:14:41;;;;;;;5.4;3;;;;;;;9.78;48.46777;962.8445;;;;
2019/05/06 13:17:09;;;;;;;8.6;4;;;;;;;9.71;49.03418;962.8846;;;;
2019/05/06 13:19:32;;;;;;;7.4;3.8;;;;;;;9.68;48.80176;962.861;;;;
2019/05/06 13:21:57;;;;;;;7.5;3.8;;;;;;;9.59;50.31934;962.825;;;;
2019/05/06 13:24:22;;;;;;;5.8;3.8;;;;;;;9.62;48.58789;962.8617;;;;
2019/05/06 13:26:47;;;;;;;7.1;3.9;;;;;;;9.53;48.3252;962.899;;;;
2019/05/06 13:29:18;;;;;;;6.6;3.7;;;;;;;9.5;49.30957;962.8925;;;;
2019/05/06 13:31:37;;;;;;;6;3.5;;;;;;;9.43;48.8418;962.937;;;;
2019/05/06 13:34:09;;;;;;;7.2;4;;;;;;;9.4;49.17188;962.9305;;;;
2019/05/06 13:36:30;;;;;;;6.6;3.8;;;;;;;9.32;48.87598;962.9191;;;;
2019/05/06 13:38:55;;;;;;;7.1;3.5;;;;;;;9.51;51.31934;962.9655;;;;
2019/05/06 13:41:43;;;;;;;9;4.3;;;;;;;9.4;50.27246;962.9442;;;;
2019/05/06 13:44:10;;;;;;;6.7;3.6;;;;;;;9.49;46.97754;962.9453;;;;
2019/05/06 13:46:36;;;;;;;6.1;3.6;;;;;;;9.5;47.70215;962.9055;;;;
2019/05/06 13:52:04;;;;;;;5.9;3.4;;;;;;;9.93;46.03711;962.8025;;;;
2019/05/06 13:54:25;;;;;;;5.3;3.1;;;;;;;10.1;45.79004;962.8152;;;;
2019/05/06 13:56:50;;;;;;;6.3;3.4;;;;;;;10.17;46.59082;962.8441;;;;
2019/05/06 13:59:15;;;;;;;5.6;3;;;;;;;10.05;46.92383;962.8276;;;;
2019/05/06 14:04:06;;;;;;;6.5;3.7;;;;;;;10.5;42.81934;962.8259;;;;
2019/05/06 14:06:31;;;;;;;5.7;3.2;;;;;;;10.34;43.13574;962.8828;;;;
2019/05/06 14:08:57;;;;;;;5.8;3.4;;;;;;;10.25;42.27637;962.824;;;;
2019/05/06 14:11:22;;;;;;;5.7;3.5;;;;;;;10.01;43.02246;962.8787;;;;
2019/05/06 14:13:49;;;;;;;5.1;3;;;;;;;9.88;43.52734;962.8323;;;;
2019/05/06 14:16:14;;;;;;;6.4;3.5;;;;;;;10.03;45.42676;962.7687;;;;
2019/05/06 14:18:40;;;;;;;6.8;3.4;;;;;;;10.07;45.32715;962.8088;;;;
2019/05/06 14:21:05;;;;;;;6.2;3.5;;;;;;;10.23;45.28613;962.7654;;;;
2019/05/06 14:23:30;;;;;;;4.3;3;;;;;;;10.14;45.00195;962.742;;;;
2019/05/06 14:28:31;;;;;;;4.9;3.1;;;;;;;9.91;46.16211;962.795;;;;
2019/05/06 14:30:54;;;;;;;4.7;3;;;;;;;9.99;44.30762;962.7195;;;;
2019/05/06 14:33:13;;;;;;;6.2;3.3;;;;;;;9.85;44.33984;962.7999;;;;
2019/05/06 14:35:37;;;;;;;8.1;3.9;;;;;;;9.56;43.9541;962.8226;;;;
2019/05/06 14:38:02;;;;;;;5.2;3.6;;;;;;;9.48;45.14063;962.8376;;;;
2019/05/06 14:40:27;;;;;;;5.9;3.6;;;;;;;9.43;44.53809;962.8418;;;;
2019/05/06 14:42:52;;;;;;;7.3;3.9;;;;;;;9.49;46.9209;962.8719;;;;
2019/05/06 14:45:17;;;;;;;5.4;3.4;;;;;;;9.68;45.40234;962.8741;;;;
2019/05/06 14:47:42;;;;;;;4.6;3.5;;;;;;;9.77;46.9043;962.8284;;;;
2019/05/06 14:50:07;;;;;;;6.1;3.7;;;;;;;9.68;46.59668;962.8911;;;;
2019/05/06 14:52:34;;;;;;;4.9;3.4;;;;;;;9.66;46.96191;962.8929;;;;
2019/05/06 14:55:06;;;;;;;6.5;3.7;;;;;;;9.6;46.2207;962.9021;;;;
2019/05/06 14:57:24;;;;;;;6;3.6;;;;;;;9.6;46.36914;962.9152;;;;
2019/05/06 14:59:49;;;;;;;6.4;3.6;;;;;;;9.56;46.95117;962.8617;;;;
2019/05/06 15:02:14;;;;;;;6.1;3.6;;;;;;;9.57;46.49316;962.9305;;;;
2019/05/06 15:04:39;;;;;;;6.5;4.1;;;;;;;9.55;46.27246;962.9281;;;;
2019/05/06 15:07:04;;;;;;;5.9;3.9;;;;;;;9.29;47.97656;962.9092;;;;
2019/05/06 15:09:30;;;;;;;7.1;4.2;;;;;;;9.19;47.28906;962.9341;;;;
2019/05/06 15:11:55;;;;;;;5.8;4.4;;;;;;;9.19;47.72461;962.9642;;;;